createdAt,value
2018-08-25T00:05:37.432Z,12.80
2018-08-25T00:08:05.018Z,12.80
2018-08-25T00:10:32.538Z,12.80
2018-08-25T00:13:00.126Z,12.80
2018-08-25T00:15:27.694Z,12.80
2018-08-25T00:17:55.302Z,12.70
2018-08-25T00:20:22.897Z,12.80
2018-08-25T00:22:50.434Z,12.80
2018-08-25T00:25:18.012Z,12.80
2018-08-25T00:27:45.591Z,12.70
2018-08-25T00:30:18.790Z,12.80
2018-08-25T00:32:46.326Z,12.80
2018-08-25T00:35:13.816Z,12.80
2018-08-25T00:37:41.762Z,12.80
2018-08-25T00:40:09.321Z,12.80
2018-08-25T00:42:36.842Z,12.80
2018-08-25T00:45:04.561Z,12.80
2018-08-25T00:47:32.129Z,12.80
2018-08-25T00:50:00.143Z,12.80
2018-08-25T00:52:27.652Z,12.80
2018-08-25T00:54:55.344Z,12.80
2018-08-25T00:57:23.162Z,12.80
2018-08-25T00:59:50.763Z,12.80
2018-08-25T01:02:18.693Z,12.70
2018-08-25T01:04:46.219Z,12.70
2018-08-25T01:07:13.768Z,12.70
2018-08-25T01:09:41.410Z,12.70
2018-08-25T01:12:08.915Z,12.70
2018-08-25T01:14:36.441Z,12.60
2018-08-25T01:17:04.017Z,12.60
2018-08-25T01:19:31.582Z,12.60
2018-08-25T01:21:59.121Z,12.70
2018-08-25T01:24:26.718Z,12.60
2018-08-25T01:26:54.395Z,12.60
2018-08-25T01:29:21.922Z,12.60
2018-08-25T01:31:49.697Z,12.60
2018-08-25T01:34:17.207Z,12.60
2018-08-25T01:36:44.729Z,12.50
2018-08-25T01:39:12.308Z,12.50
2018-08-25T01:41:39.837Z,12.50
2018-08-25T01:44:07.332Z,12.50
2018-08-25T01:46:34.937Z,12.50
2018-08-25T01:49:02.702Z,12.50
2018-08-25T01:51:30.211Z,12.50
2018-08-25T01:53:57.733Z,12.40
2018-08-25T01:56:25.288Z,12.40
2018-08-25T01:58:52.842Z,12.50
2018-08-25T02:01:20.385Z,12.40
2018-08-25T02:03:47.978Z,12.40
2018-08-25T02:06:15.569Z,12.40
2018-08-25T02:08:43.081Z,12.30
2018-08-25T02:11:10.641Z,12.30
2018-08-25T02:13:38.157Z,12.30
2018-08-25T02:16:06.245Z,12.30
2018-08-25T02:18:33.797Z,12.30
2018-08-25T02:21:01.335Z,12.30
2018-08-25T02:23:28.882Z,12.30
2018-08-25T02:25:56.445Z,12.30
2018-08-25T02:28:24.272Z,12.30
2018-08-25T02:30:52.011Z,12.30
2018-08-25T02:33:19.552Z,12.20
2018-08-25T02:35:47.085Z,12.20
2018-08-25T02:38:14.720Z,12.30
2018-08-25T02:40:42.296Z,12.30
2018-08-25T02:43:09.901Z,12.30
2018-08-25T02:45:37.456Z,12.30
2018-08-25T02:48:05.013Z,12.30
2018-08-25T02:50:32.544Z,12.30
2018-08-25T02:53:00.190Z,12.40
2018-08-25T02:55:27.795Z,12.40
2018-08-25T02:57:55.329Z,12.30
2018-08-25T03:00:22.877Z,12.30
2018-08-25T03:02:50.398Z,12.30
2018-08-25T03:05:17.899Z,12.30
2018-08-25T03:07:45.445Z,12.30
2018-08-25T03:10:13.019Z,12.30
2018-08-25T03:12:40.584Z,12.30
2018-08-25T03:15:08.173Z,12.20
2018-08-25T03:17:36.232Z,12.30
2018-08-25T03:20:03.825Z,12.30
2018-08-25T03:22:31.488Z,12.30
2018-08-25T03:24:59.042Z,12.30
2018-08-25T03:27:26.628Z,12.30
2018-08-25T03:29:54.192Z,12.30
2018-08-25T03:32:21.799Z,12.30
2018-08-25T03:34:49.369Z,12.30
2018-08-25T03:37:17.047Z,12.20
2018-08-25T03:39:44.687Z,12.20
2018-08-25T03:42:12.224Z,12.10
2018-08-25T03:44:39.831Z,12.10
2018-08-25T03:47:07.436Z,12.10
2018-08-25T03:49:34.986Z,12.10
2018-08-25T03:52:02.537Z,12.10
2018-08-25T03:54:30.279Z,12.10
2018-08-25T03:56:57.816Z,12.10
2018-08-25T03:59:25.346Z,12.10
2018-08-25T04:01:52.946Z,12.00
2018-08-25T04:04:20.522Z,11.90
2018-08-25T04:06:48.061Z,11.90
2018-08-25T04:09:15.684Z,11.90
2018-08-25T04:11:43.215Z,11.90
2018-08-25T04:14:11.627Z,11.80
2018-08-25T04:16:39.375Z,11.80
2018-08-25T04:19:11.526Z,11.80
2018-08-25T04:21:39.122Z,11.80
2018-08-25T04:24:06.806Z,11.90
2018-08-25T04:26:34.336Z,11.90
2018-08-25T04:29:01.898Z,11.90
2018-08-25T04:31:29.662Z,11.90
2018-08-25T04:33:57.220Z,11.90
2018-08-25T04:36:24.922Z,11.90
2018-08-25T04:38:52.496Z,11.80
2018-08-25T04:41:20.044Z,11.80
2018-08-25T04:43:47.780Z,11.80
2018-08-25T04:46:15.355Z,11.80
2018-08-25T04:48:42.892Z,11.80
2018-08-25T04:51:10.701Z,11.70
2018-08-25T04:53:38.306Z,11.70
2018-08-25T04:56:05.905Z,11.70
2018-08-25T04:58:33.482Z,11.70
2018-08-25T05:01:01.047Z,11.70
2018-08-25T05:03:28.713Z,11.70
2018-08-25T05:05:56.316Z,11.70
2018-08-25T05:08:23.900Z,11.80
2018-08-25T05:10:51.455Z,11.80
2018-08-25T05:13:19.016Z,11.80
2018-08-25T05:15:46.552Z,11.80
2018-08-25T05:18:14.134Z,11.70
2018-08-25T05:20:41.693Z,11.70
2018-08-25T05:23:09.606Z,11.70
2018-08-25T05:25:37.134Z,11.70
2018-08-25T05:28:04.730Z,11.60
2018-08-25T05:30:32.345Z,11.60
2018-08-25T05:32:59.887Z,11.60
2018-08-25T05:35:27.472Z,11.60
2018-08-25T05:37:55.012Z,11.60
2018-08-25T05:40:23.238Z,11.60
2018-08-25T05:42:50.782Z,11.70
2018-08-25T05:45:18.308Z,11.70
2018-08-25T05:47:45.846Z,11.60
2018-08-25T05:50:13.423Z,11.70
2018-08-25T05:52:40.915Z,11.70
2018-08-25T05:55:08.472Z,11.70
2018-08-25T05:57:36.208Z,11.70
2018-08-25T06:00:04.532Z,11.60
2018-08-25T06:02:32.473Z,11.60
2018-08-25T06:05:00.184Z,11.60
2018-08-25T06:07:27.715Z,11.60
2018-08-25T06:09:55.323Z,11.70
2018-08-25T06:12:22.883Z,11.70
2018-08-25T06:14:50.423Z,11.70
2018-08-25T06:17:18.007Z,11.70
2018-08-25T06:19:45.569Z,11.70
2018-08-25T06:22:13.161Z,11.70
2018-08-25T06:24:40.680Z,11.70
2018-08-25T06:27:08.304Z,11.80
2018-08-25T06:29:35.887Z,11.80
2018-08-25T06:32:03.500Z,11.80
2018-08-25T06:34:31.126Z,11.90
2018-08-25T06:36:59.073Z,11.90
2018-08-25T06:39:26.626Z,12.00
2018-08-25T06:41:54.211Z,12.00
2018-08-25T06:44:21.837Z,12.00
2018-08-25T06:46:49.901Z,12.10
2018-08-25T06:49:17.459Z,12.10
2018-08-25T06:51:45.087Z,12.20
2018-08-25T06:54:12.633Z,12.20
2018-08-25T06:56:40.232Z,12.30
2018-08-25T06:59:07.954Z,12.30
2018-08-25T07:01:35.649Z,12.40
2018-08-25T07:04:03.387Z,12.40
2018-08-25T07:06:30.949Z,12.50
2018-08-25T07:08:58.595Z,12.60
2018-08-25T07:11:26.189Z,12.70
2018-08-25T07:13:53.769Z,12.70
2018-08-25T07:16:21.388Z,12.80
2018-08-25T07:18:49.366Z,13.00
2018-08-25T07:21:16.911Z,13.00
2018-08-25T07:23:44.499Z,13.00
2018-08-25T07:26:12.126Z,13.10
2018-08-25T07:28:39.769Z,13.20
2018-08-25T07:33:41.505Z,13.50
2018-08-25T07:36:09.083Z,13.70
2018-08-25T07:38:36.687Z,13.70
2018-08-25T07:41:04.403Z,13.80
2018-08-25T07:43:32.018Z,13.90
2018-08-25T07:45:59.627Z,14.00
2018-08-25T07:48:27.189Z,14.00
2018-08-25T07:50:54.724Z,14.10
2018-08-25T07:53:22.345Z,14.20
2018-08-25T07:55:50.215Z,14.30
2018-08-25T07:58:17.941Z,14.40
2018-08-25T08:00:45.489Z,14.60
2018-08-25T08:03:13.034Z,14.80
2018-08-25T08:05:40.696Z,14.80
2018-08-25T08:08:08.249Z,14.90
2018-08-25T08:10:35.886Z,15.10
2018-08-25T08:13:03.609Z,15.10
2018-08-25T08:15:31.360Z,15.20
2018-08-25T08:17:58.999Z,15.40
2018-08-25T08:20:26.573Z,15.40
2018-08-25T08:22:54.191Z,15.30
2018-08-25T08:25:21.794Z,15.30
2018-08-25T08:27:49.509Z,15.50
2018-08-25T08:30:17.408Z,15.60
2018-08-25T08:32:45.085Z,15.40
2018-08-25T08:35:12.643Z,15.30
2018-08-25T08:37:40.203Z,15.40
2018-08-25T08:40:07.800Z,15.50
2018-08-25T08:42:36.254Z,15.70
2018-08-25T08:45:03.946Z,16.00
2018-08-25T08:47:31.603Z,16.00
2018-08-25T08:49:59.361Z,15.90
2018-08-25T08:52:27.309Z,15.90
2018-08-25T08:54:54.883Z,15.90
2018-08-25T08:57:22.441Z,15.90
2018-08-25T08:59:50.216Z,15.90
2018-08-25T09:02:17.750Z,15.90
2018-08-25T09:04:45.284Z,16.20
2018-08-25T09:07:12.864Z,16.50
2018-08-25T09:09:40.460Z,16.90
2018-08-25T09:12:08.032Z,17.00
2018-08-25T09:14:35.579Z,16.90
2018-08-25T09:17:03.225Z,16.90
2018-08-25T09:19:30.858Z,16.80
2018-08-25T09:21:58.348Z,17.00
2018-08-25T09:24:26.190Z,17.30
2018-08-25T09:26:53.734Z,17.30
2018-08-25T09:29:21.298Z,17.10
2018-08-25T09:31:48.846Z,16.90
2018-08-25T09:34:16.412Z,16.70
2018-08-25T09:36:44.014Z,16.60
2018-08-25T09:39:11.614Z,16.60
2018-08-25T09:41:39.429Z,16.70
2018-08-25T09:44:07.005Z,16.90
2018-08-25T09:46:34.632Z,16.90
2018-08-25T09:49:02.327Z,17.30
2018-08-25T09:51:29.863Z,17.10
2018-08-25T09:53:57.465Z,16.90
2018-08-25T09:56:25.052Z,16.60
2018-08-25T09:58:52.688Z,16.30
2018-08-25T10:01:25.938Z,16.10
2018-08-25T10:03:56.149Z,16.10
2018-08-25T10:06:23.698Z,16.10
2018-08-25T10:08:51.328Z,16.20
2018-08-25T10:11:18.833Z,16.30
2018-08-25T10:13:46.389Z,16.50
2018-08-25T10:16:13.974Z,17.00
2018-08-25T10:18:41.509Z,17.40
2018-08-25T10:21:09.090Z,17.40
2018-08-25T10:23:37.360Z,17.40
2018-08-25T10:26:04.998Z,17.30
2018-08-25T10:28:32.640Z,17.20
2018-08-25T10:31:00.617Z,17.30
2018-08-25T10:33:28.180Z,17.20
2018-08-25T10:35:55.753Z,17.20
2018-08-25T10:38:23.339Z,17.10
2018-08-25T10:40:50.940Z,17.40
2018-08-25T10:43:18.524Z,18.20
2018-08-25T10:45:46.091Z,18.10
2018-08-25T10:48:13.763Z,17.90
2018-08-25T10:50:41.205Z,17.70
2018-08-25T10:53:08.791Z,18.00
2018-08-25T10:55:36.343Z,18.40
2018-08-25T10:58:04.090Z,19.00
2018-08-25T11:00:31.743Z,19.30
2018-08-25T11:02:59.299Z,19.10
2018-08-25T11:05:26.826Z,18.70
2018-08-25T11:07:54.410Z,18.40
2018-08-25T11:10:22.066Z,18.40
2018-08-25T11:12:49.594Z,18.30
2018-08-25T11:15:17.230Z,18.90
2018-08-25T11:17:44.906Z,19.30
2018-08-25T11:20:12.580Z,19.10
2018-08-25T11:22:40.209Z,18.90
2018-08-25T11:25:07.788Z,18.90
2018-08-25T11:27:35.330Z,18.90
2018-08-25T11:30:03.044Z,19.30
2018-08-25T11:32:30.593Z,19.90
2018-08-25T11:34:58.134Z,20.40
2018-08-25T11:37:25.739Z,20.20
2018-08-25T11:39:53.256Z,19.80
2018-08-25T11:42:20.784Z,19.60
2018-08-25T11:44:48.347Z,19.70
2018-08-25T11:47:17.085Z,19.70
2018-08-25T11:49:45.746Z,20.10
2018-08-25T11:52:13.513Z,20.50
2018-08-25T11:54:41.111Z,21.00
2018-08-25T11:57:08.721Z,20.90
2018-08-25T11:59:36.316Z,20.80
2018-08-25T12:02:04.021Z,20.50
2018-08-25T12:04:31.591Z,20.60
2018-08-25T12:06:59.153Z,20.50
2018-08-25T12:09:26.751Z,20.50
2018-08-25T12:11:54.291Z,21.00
2018-08-25T12:14:21.917Z,21.30
2018-08-25T12:16:49.493Z,21.50
2018-08-25T12:19:17.084Z,21.90
2018-08-25T12:21:44.655Z,21.90
2018-08-25T12:24:12.389Z,21.70
2018-08-25T12:26:39.991Z,21.20
2018-08-25T12:29:07.619Z,20.80
2018-08-25T12:31:35.212Z,20.80
2018-08-25T12:34:02.790Z,20.70
2018-08-25T12:36:30.357Z,21.00
2018-08-25T12:38:57.893Z,21.90
2018-08-25T12:41:25.491Z,21.60
2018-08-25T12:43:53.002Z,20.90
2018-08-25T12:46:20.552Z,20.80
2018-08-25T12:48:48.152Z,21.30
2018-08-25T12:51:15.727Z,21.00
2018-08-25T12:53:43.306Z,20.70
2018-08-25T12:56:10.877Z,20.40
2018-08-25T12:58:38.397Z,20.30
2018-08-25T13:01:05.983Z,20.40
2018-08-25T13:03:33.613Z,20.70
2018-08-25T13:06:01.248Z,21.30
2018-08-25T13:08:28.843Z,21.60
2018-08-25T13:10:56.435Z,21.70
2018-08-25T13:13:23.996Z,21.70
2018-08-25T13:15:51.527Z,22.20
2018-08-25T13:18:19.100Z,22.50
2018-08-25T13:20:46.651Z,22.80
2018-08-25T13:23:14.195Z,22.50
2018-08-25T13:25:41.812Z,22.20
2018-08-25T13:28:09.456Z,21.60
2018-08-25T13:30:37.058Z,21.30
2018-08-25T13:33:04.669Z,21.30
2018-08-25T13:35:32.274Z,21.60
2018-08-25T13:37:59.884Z,21.80
2018-08-25T13:40:27.845Z,21.10
2018-08-25T13:42:56.269Z,20.70
2018-08-25T13:45:23.863Z,20.30
2018-08-25T13:47:51.417Z,20.00
2018-08-25T13:50:24.649Z,19.90
2018-08-25T13:52:52.328Z,19.80
2018-08-25T13:55:20.070Z,20.40
2018-08-25T13:57:47.673Z,20.90
2018-08-25T14:00:15.302Z,21.30
2018-08-25T14:02:42.964Z,22.10
2018-08-25T14:05:10.588Z,21.70
2018-08-25T14:07:38.550Z,21.30
2018-08-25T14:10:06.320Z,21.20
2018-08-25T14:12:33.904Z,20.80
2018-08-25T14:15:01.479Z,20.40
2018-08-25T14:17:29.090Z,20.10
2018-08-25T14:19:56.788Z,20.80
2018-08-25T14:22:24.372Z,20.60
2018-08-25T14:24:52.032Z,20.30
2018-08-25T14:27:19.641Z,20.30
2018-08-25T14:29:47.254Z,21.30
2018-08-25T14:32:14.855Z,21.90
2018-08-25T14:34:42.374Z,21.90
2018-08-25T14:37:10.464Z,21.60
2018-08-25T14:39:38.227Z,21.60
2018-08-25T14:42:06.113Z,22.00
2018-08-25T14:44:33.758Z,21.90
2018-08-25T14:47:01.434Z,21.70
2018-08-25T14:49:29.030Z,21.70
2018-08-25T14:51:56.587Z,22.50
2018-08-25T14:54:24.212Z,23.20
2018-08-25T14:56:51.806Z,23.60
2018-08-25T14:59:19.378Z,24.30
2018-08-25T15:01:47.025Z,24.40
2018-08-25T15:04:14.758Z,24.60
2018-08-25T15:06:42.270Z,23.90
2018-08-25T15:09:12.014Z,24.10
2018-08-25T15:11:39.688Z,24.40
2018-08-25T15:14:07.377Z,23.70
2018-08-25T15:16:35.041Z,23.90
2018-08-25T15:19:02.626Z,23.60
2018-08-25T15:21:30.288Z,24.00
2018-08-25T15:23:58.232Z,24.40
2018-08-25T15:26:25.884Z,24.80
2018-08-25T15:28:53.470Z,25.10
2018-08-25T15:31:21.108Z,25.30
2018-08-25T15:33:48.696Z,24.70
2018-08-25T15:36:16.364Z,25.00
2018-08-25T15:38:43.996Z,25.00
2018-08-25T15:41:11.779Z,24.10
2018-08-25T15:43:39.402Z,24.40
2018-08-25T15:46:07.078Z,23.50
2018-08-25T15:48:34.629Z,22.70
2018-08-25T15:51:02.253Z,23.20
2018-08-25T15:53:29.902Z,23.80
2018-08-25T15:55:57.570Z,23.80
2018-08-25T15:58:25.125Z,24.60
2018-08-25T16:00:52.706Z,24.40
2018-08-25T16:03:20.296Z,24.10
2018-08-25T16:05:47.908Z,24.30
2018-08-25T16:08:15.497Z,24.80
2018-08-25T16:10:43.048Z,24.30
2018-08-25T16:13:10.596Z,23.90
2018-08-25T16:15:38.209Z,22.90
2018-08-25T16:18:05.743Z,23.20
2018-08-25T16:20:33.277Z,23.60
2018-08-25T16:25:54.222Z,24.40
2018-08-25T16:28:21.821Z,25.20
2018-08-25T16:30:49.647Z,25.40
2018-08-25T16:33:17.277Z,25.10
2018-08-25T16:35:44.891Z,25.00
2018-08-25T16:38:12.425Z,25.20
2018-08-25T16:40:40.041Z,25.50
2018-08-25T16:43:07.713Z,25.50
2018-08-25T16:45:35.321Z,25.20
2018-08-25T16:48:02.895Z,25.70
2018-08-25T16:50:30.455Z,25.80
2018-08-25T16:52:58.095Z,25.80
2018-08-25T16:55:26.468Z,26.00
2018-08-25T16:57:54.056Z,26.10
2018-08-25T17:00:21.651Z,26.20
2018-08-25T17:02:49.247Z,25.50
2018-08-25T17:05:16.796Z,25.70
2018-08-25T17:07:44.333Z,25.30
2018-08-25T17:10:11.953Z,25.10
2018-08-25T17:12:39.498Z,25.20
2018-08-25T17:15:07.374Z,26.00
2018-08-25T17:17:34.947Z,26.70
2018-08-25T17:20:02.540Z,26.80
2018-08-25T17:22:30.077Z,27.00
2018-08-25T17:24:57.637Z,26.90
2018-08-25T17:27:25.177Z,26.10
2018-08-25T17:29:52.789Z,25.40
2018-08-25T17:32:20.441Z,24.60
2018-08-25T17:34:47.941Z,23.70
2018-08-25T17:37:15.501Z,23.20
2018-08-25T17:39:43.033Z,22.70
2018-08-25T17:42:10.525Z,22.20
2018-08-25T17:44:38.063Z,21.70
2018-08-25T17:47:05.695Z,21.20
2018-08-25T17:49:33.291Z,21.00
2018-08-25T17:52:00.896Z,20.80
2018-08-25T17:54:28.520Z,20.50
2018-08-25T17:56:56.190Z,20.40
2018-08-25T17:59:23.741Z,20.20
2018-08-25T18:01:51.429Z,20.10
2018-08-25T18:04:19.016Z,19.90
2018-08-25T18:06:46.566Z,19.70
2018-08-25T18:09:14.167Z,19.50
2018-08-25T18:11:41.837Z,19.30
2018-08-25T18:14:09.441Z,19.20
2018-08-25T18:16:36.994Z,19.20
2018-08-25T18:19:04.919Z,19.10
2018-08-25T18:21:32.511Z,19.10
2018-08-25T18:24:00.084Z,19.00
2018-08-25T18:26:27.916Z,18.80
2018-08-25T18:28:55.474Z,18.50
2018-08-25T18:31:23.246Z,18.40
2018-08-25T18:33:50.804Z,18.30
2018-08-25T18:36:18.329Z,18.30
2018-08-25T18:38:45.943Z,18.20
2018-08-25T18:41:13.481Z,18.10
2018-08-25T18:43:41.032Z,18.00
2018-08-25T18:46:08.667Z,17.90
2018-08-25T18:48:36.428Z,17.80
2018-08-25T18:51:03.982Z,17.70
2018-08-25T18:53:31.581Z,17.60
2018-08-25T18:55:59.207Z,17.50
2018-08-25T18:58:26.865Z,17.50
2018-08-25T19:00:54.425Z,17.50
2018-08-25T19:03:22.056Z,17.30
2018-08-25T19:05:49.633Z,17.20
2018-08-25T19:08:17.189Z,17.00
2018-08-25T19:10:44.736Z,16.80
2018-08-25T19:13:12.298Z,16.70
2018-08-25T19:15:39.872Z,16.70
2018-08-25T19:18:07.423Z,16.60
2018-08-25T19:20:34.954Z,16.60
2018-08-25T19:23:02.506Z,16.50
2018-08-25T19:25:30.028Z,16.50
2018-08-25T19:27:57.550Z,16.40
2018-08-25T19:30:25.112Z,16.30
2018-08-25T19:32:52.660Z,16.10
2018-08-25T19:35:20.175Z,16.10
2018-08-25T19:37:47.736Z,16.00
2018-08-25T19:40:15.253Z,16.00
2018-08-25T19:42:42.818Z,15.90
2018-08-25T19:45:10.418Z,15.90
2018-08-25T19:47:37.974Z,15.80
2018-08-25T19:50:05.556Z,15.80
2018-08-25T19:52:33.168Z,15.70
2018-08-25T19:55:00.704Z,15.70
2018-08-25T19:57:28.230Z,15.60
2018-08-25T19:59:55.770Z,15.50
2018-08-25T20:02:23.352Z,15.40
2018-08-25T20:04:50.914Z,15.30
2018-08-25T20:07:18.526Z,15.20
2018-08-25T20:09:46.108Z,15.10
2018-08-25T20:12:13.612Z,15.10
2018-08-25T20:14:41.144Z,15.10
2018-08-25T20:17:08.689Z,15.10
2018-08-25T20:19:36.246Z,15.10
2018-08-25T20:22:03.900Z,15.00
2018-08-25T20:24:31.492Z,15.00
2018-08-25T20:26:59.014Z,15.10
2018-08-25T20:29:26.570Z,15.00
2018-08-25T20:31:54.190Z,14.90
2018-08-25T20:34:21.751Z,14.90
2018-08-25T20:36:49.300Z,14.80
2018-08-25T20:39:16.846Z,14.70
2018-08-25T20:41:44.391Z,14.60
2018-08-25T20:44:11.904Z,14.60
2018-08-25T20:46:39.448Z,14.50
2018-08-25T20:49:07.022Z,14.50
2018-08-25T20:51:35.370Z,14.40
2018-08-25T20:54:03.003Z,14.40
2018-08-25T20:56:31.521Z,14.50
2018-08-25T20:58:59.105Z,14.50
2018-08-25T21:01:26.703Z,14.60
2018-08-25T21:03:54.226Z,14.70
2018-08-25T21:06:21.785Z,14.60
2018-08-25T21:08:49.378Z,14.70
2018-08-25T21:11:16.904Z,14.80
2018-08-25T21:13:44.449Z,15.00
2018-08-25T21:16:12.019Z,15.00
2018-08-25T21:18:39.772Z,15.10
2018-08-25T21:21:07.305Z,15.10
2018-08-25T21:23:35.134Z,15.10
2018-08-25T21:26:02.737Z,14.90
2018-08-25T21:28:30.247Z,15.00
2018-08-25T21:30:57.935Z,14.90
2018-08-25T21:33:25.490Z,14.80
2018-08-25T21:35:53.306Z,14.70
2018-08-25T21:38:20.839Z,14.60
2018-08-25T21:40:48.429Z,14.50
2018-08-25T21:43:15.926Z,14.50
2018-08-25T21:45:43.495Z,14.60
2018-08-25T21:48:10.976Z,14.60
2018-08-25T21:50:38.535Z,14.60
2018-08-25T21:53:06.111Z,14.60
2018-08-25T21:55:33.648Z,14.60
2018-08-25T21:58:01.185Z,14.60
2018-08-25T22:00:28.843Z,14.70
2018-08-25T22:02:56.329Z,14.60
2018-08-25T22:05:23.887Z,14.60
2018-08-25T22:07:51.488Z,14.60
2018-08-25T22:10:19.119Z,14.70
2018-08-25T22:12:46.700Z,14.70
2018-08-25T22:15:14.279Z,14.80
2018-08-25T22:17:41.806Z,14.80
2018-08-25T22:20:09.363Z,14.60
2018-08-25T22:22:36.937Z,14.50
2018-08-25T22:25:04.633Z,14.40
2018-08-25T22:27:32.181Z,14.40
2018-08-25T22:29:59.818Z,14.50
2018-08-25T22:32:27.440Z,14.50
2018-08-25T22:34:55.105Z,14.50
2018-08-25T22:37:22.625Z,14.50
2018-08-25T22:39:50.174Z,14.30
2018-08-25T22:42:17.748Z,14.30
2018-08-25T22:44:45.285Z,14.40
2018-08-25T22:47:12.850Z,14.40
2018-08-25T22:49:40.377Z,14.40
2018-08-25T22:52:07.921Z,14.30
2018-08-25T22:54:35.540Z,14.30
2018-08-25T22:57:03.069Z,14.30
2018-08-25T22:59:30.626Z,14.20
2018-08-25T23:01:58.188Z,14.30
2018-08-25T23:04:25.718Z,14.50
2018-08-25T23:06:53.310Z,14.40
2018-08-25T23:09:20.850Z,14.40
2018-08-25T23:11:48.383Z,14.30
2018-08-25T23:14:17.021Z,14.10
2018-08-25T23:16:44.633Z,14.10
2018-08-25T23:19:12.196Z,14.00
2018-08-25T23:21:39.742Z,14.00
2018-08-25T23:24:07.334Z,13.90
2018-08-25T23:26:34.873Z,14.00
2018-08-25T23:29:02.460Z,14.00
2018-08-25T23:31:30.074Z,14.00
2018-08-25T23:33:57.634Z,14.00
2018-08-25T23:36:25.210Z,13.90
2018-08-25T23:38:52.804Z,13.90
2018-08-25T23:41:20.365Z,13.90
2018-08-25T23:43:47.959Z,14.00
2018-08-25T23:46:15.534Z,14.00
2018-08-25T23:48:43.114Z,14.00
2018-08-25T23:51:10.678Z,13.90
2018-08-25T23:53:38.252Z,14.00
2018-08-25T23:56:05.791Z,14.00
2018-08-25T23:58:33.321Z,14.10
